Tahawus, New York
Current Conditions -  °F | °C
As of 2:51 AM on Wednesday 26 Nov 2014 (Local Time) from KSLK Reporting Station
Clear Clear  
Wind Chill: -6°   Ceiling: Unl
Heat Index: -2°   Visibility: 10mi
Dew Point: -6°   Wind: 8mph
Humidity: 75%   Direction: 240°WSW
Pressure: 30.12"   Gusts: NA
Location:  44.0508°N, 74.0396°W
Report Text: KSLK 260751Z AUTO 24007KT 10SM CLR M02/M06 A3012 RMK AO2 SLP218 T10171056
Loading
Personal Weather Stations






























Interactive Weather Map New forecast layout! Learn more

10-Day Weather Forecast

Advertisements
Track Severe Weather on mobile